East Princeton, Massachusetts
Current Conditions -  °F | °C
As of 4:52 AM on Friday 19 Dec 2014 (Local Time) from KFIT Reporting Station
Overcast Overcast  
Wind Chill: 25°   Ceiling: 4700
Heat Index: 33°   Visibility: 10mi
Dew Point: 23°   Wind: 9mph
Humidity: 66%   Direction: 310°NW
Pressure: 29.88"   Gusts: NA
Location:  42.47°N, 71.84°W
Report Text: KFIT 190952Z AUTO 31008KT 10SM OVC047 01/M05 A2988 RMK AO2 SLP123 T00061050
Loading
Personal Weather Stations






























Interactive Weather Map New forecast layout! Learn more

10-Day Weather Forecast

Advertisements
Track Severe Weather on mobile